This is the latest recevied weather packets stored in our database for station/object N0QV. If no packets are shown the sender has not sent any weather packets the latest 10 day(s).
| Time | Temp. | Humidity | Pressure | Rain* | Wind** | Luminosity | Snow |
|---|---|---|---|---|---|---|---|
| 1777666974 | 11.67° C | 34% | 1019.3 hPa | 0 mm | - | 207 W/m² | - |
| 1777666670 | 11.67° C | 33% | 1019.2 hPa | 0 mm | - | 168 W/m² | - |
| 1777666367 | 12.78° C | 35% | 1019.1 hPa | 0 mm | - | 167 W/m² | - |
| 1777666064 | 13.33° C | 32% | 1019 hPa | 0 mm | - | 762 W/m² | - |
| 1777665761 | 13.33° C | 35% | 1019.2 hPa | 0 mm | - | 717 W/m² | - |
| 1777665458 | 12.22° C | 34% | 1019.1 hPa | 0 mm | - | 177 W/m² | - |
| 1777665154 | 12.22° C | 34% | 1019.1 hPa | 0 mm | - | 186 W/m² | - |
| 1777664851 | 12.78° C | 33% | 1019.1 hPa | 0 mm | - | 661 W/m² | - |
| 1777664547 | 13.33° C | 33% | 1019.3 hPa | 0 mm | - | 727 W/m² | - |
| 1777664243 | 13.89° C | 35% | 1019.2 hPa | 0 mm | - | 835 W/m² | - |
| 1777663942 | 12.22° C | 33% | 1019 hPa | 0 mm | - | 851 W/m² | - |
| 1777663639 | 11.67° C | 37% | 1019.1 hPa | 0 mm | - | 713 W/m² | - |
| 1777663336 | 11.11° C | 38% | 1019.1 hPa | 0 mm | - | 215 W/m² | - |
| 1777663033 | 12.22° C | 35% | 1019.1 hPa | 0 mm | - | 231 W/m² | - |
| 1777662730 | 11.67° C | 36% | 1019.1 hPa | 0 mm | - | 842 W/m² | - |
| 1777662426 | 11.67° C | 38% | 1019.2 hPa | 0 mm | - | 613 W/m² | - |
| 1777662122 | 11.67° C | 37% | 1019.1 hPa | 0 mm | - | 193 W/m² | - |
| 1777661818 | 11.67° C | 37% | 1019.1 hPa | 0 mm | - | 239 W/m² | - |
| 1777661514 | 12.22° C | 35% | 1018.9 hPa | 0 mm | - | 272 W/m² | - |
| 1777661211 | 11.11° C | 35% | 1019 hPa | 0 mm | - | 212 W/m² | - |
| 1777660911 | 11.67° C | 35% | 1019 hPa | 0 mm | - | 189 W/m² | - |
| 1777660607 | 12.22° C | 34% | 1019 hPa | 0 mm | - | 286 W/m² | - |
| 1777660304 | 12.78° C | 36% | 1019.1 hPa | 0 mm | - | 757 W/m² | - |
| 1777660000 | 11.67° C | 37% | 1019.1 hPa | 0 mm | - | 815 W/m² | - |
| 1777659697 | 11.67° C | 38% | 1019 hPa | 0 mm | - | 851 W/m² | - |
* Rain latest hour (hover to see other rain measurements)
** Current wind speed in m/s (hover to see current wind gust speed)